createdAt,value
2019-05-22T00:01:17.248Z,12.23
2019-05-22T00:03:50.689Z,11.87
2019-05-22T00:06:25.360Z,11.77
2019-05-22T00:08:55.702Z,11.90
2019-05-22T00:11:26.483Z,12.17
2019-05-22T00:13:56.862Z,13.23
2019-05-22T00:16:27.417Z,13.60
2019-05-22T00:18:57.807Z,13.30
2019-05-22T00:21:28.549Z,13.87
2019-05-22T00:23:58.995Z,14.03
2019-05-22T00:26:29.801Z,13.90
2019-05-22T00:28:59.938Z,13.53
2019-05-22T00:31:30.614Z,13.33
2019-05-22T00:34:01.326Z,14.90
2019-05-22T00:36:32.212Z,14.33
2019-05-22T00:39:02.657Z,16.73
2019-05-22T00:41:33.115Z,15.07
2019-05-22T00:44:03.892Z,14.90
2019-05-22T00:46:34.083Z,15.13
2019-05-22T00:49:04.641Z,15.30
2019-05-22T00:51:44.754Z,18.80
2019-05-22T00:54:23.878Z,16.40
2019-05-22T00:57:02.333Z,16.43
2019-05-22T00:59:34.567Z,14.67
2019-05-22T01:02:06.854Z,17.03
2019-05-22T01:04:38.076Z,13.87
2019-05-22T01:07:27.537Z,18.20
2019-05-22T01:09:57.949Z,16.47
2019-05-22T01:12:28.956Z,16.93
2019-05-22T01:15:01.168Z,15.03
2019-05-22T01:17:32.510Z,16.70
2019-05-22T01:20:03.716Z,17.00
2019-05-22T01:22:35.261Z,16.47
2019-05-22T01:25:05.993Z,16.50
2019-05-22T01:27:37.764Z,15.67
2019-05-22T01:30:09.411Z,15.93
2019-05-22T01:32:46.728Z,15.23
2019-05-22T01:35:17.818Z,13.77
2019-05-22T01:37:48.402Z,14.87
2019-05-22T01:40:25.497Z,14.27
2019-05-22T01:42:57.769Z,14.10
2019-05-22T01:45:28.112Z,13.67
2019-05-22T01:48:00.622Z,14.07
2019-05-22T01:50:42.624Z,13.37
2019-05-22T01:53:15.163Z,14.90
2019-05-22T01:55:46.920Z,14.33
2019-05-22T01:58:18.047Z,14.87
2019-05-22T02:00:48.935Z,12.53
2019-05-22T02:03:19.283Z,12.30
2019-05-22T02:05:49.361Z,14.20
2019-05-22T02:08:19.818Z,13.40
2019-05-22T02:10:50.206Z,14.07
2019-05-22T02:13:24.618Z,14.17
2019-05-22T02:15:55.066Z,14.43
2019-05-22T02:18:25.408Z,15.63
2019-05-22T02:20:55.734Z,15.07
2019-05-22T02:23:26.037Z,15.20
2019-05-22T02:25:56.486Z,15.37
2019-05-22T02:28:27.357Z,15.33
2019-05-22T02:30:57.740Z,14.67
2019-05-22T02:33:28.152Z,17.20
2019-05-22T02:35:58.517Z,17.17
2019-05-22T02:39:53.031Z,18.07
2019-05-22T02:42:26.130Z,17.73
2019-05-22T02:44:56.720Z,18.73
2019-05-22T02:47:27.043Z,18.70
2019-05-22T02:49:57.404Z,18.40
2019-05-22T02:52:27.064Z,17.93
2019-05-22T02:54:57.350Z,16.73
2019-05-22T02:57:29.119Z,16.60
2019-05-22T02:59:59.923Z,17.93
2019-05-22T03:02:30.979Z,18.60
2019-05-22T03:05:07.134Z,18.63
2019-05-22T03:07:38.374Z,19.87
2019-05-22T03:10:11.153Z,16.13
2019-05-22T03:12:41.481Z,16.00
2019-05-22T03:15:14.244Z,19.03
2019-05-22T03:17:44.766Z,19.20
2019-05-22T03:20:18.256Z,18.33
2019-05-22T03:22:58.205Z,18.37
2019-05-22T03:25:29.222Z,21.70
2019-05-22T03:27:59.558Z,21.17
2019-05-22T03:30:31.584Z,21.50
2019-05-22T03:33:02.776Z,17.33
2019-05-22T03:35:33.413Z,17.93
2019-05-22T03:38:03.841Z,22.57
2019-05-22T03:40:34.640Z,21.70
2019-05-22T03:43:21.834Z,22.80
2019-05-22T03:45:52.125Z,21.30
2019-05-22T03:48:22.486Z,24.30
2019-05-22T03:50:54.299Z,21.03
2019-05-22T03:53:24.591Z,23.93
2019-05-22T03:55:54.946Z,24.80
2019-05-22T03:58:25.179Z,24.27
2019-05-22T04:00:55.812Z,25.20
2019-05-22T04:03:26.185Z,25.80
2019-05-22T04:05:56.593Z,24.23
2019-05-22T04:08:28.089Z,24.67
2019-05-22T04:11:00.208Z,24.70
2019-05-22T04:13:30.540Z,25.20
2019-05-22T04:16:01.011Z,23.97
2019-05-22T04:18:31.426Z,25.77
2019-05-22T04:21:01.915Z,22.37
2019-05-22T04:23:32.280Z,21.03
2019-05-22T04:26:02.852Z,23.97
2019-05-22T04:28:33.344Z,25.43
2019-05-22T04:31:03.822Z,24.70
2019-05-22T04:33:34.098Z,24.30
2019-05-22T04:36:04.893Z,23.43
2019-05-22T04:38:35.219Z,24.67
2019-05-22T04:41:06.103Z,21.17
2019-05-22T04:43:36.658Z,20.30
2019-05-22T04:46:07.692Z,20.97
2019-05-22T04:48:38.028Z,18.77
2019-05-22T04:51:18.865Z,18.53
2019-05-22T04:53:49.028Z,17.27
2019-05-22T04:56:19.281Z,18.17
2019-05-22T04:58:49.645Z,17.13
2019-05-22T05:01:20.598Z,16.00
2019-05-22T05:03:51.068Z,13.80
2019-05-22T05:06:22.048Z,14.00
2019-05-22T05:08:52.338Z,15.33
2019-05-22T05:11:22.740Z,15.03
2019-05-22T05:13:53.297Z,14.20
2019-05-22T05:16:23.551Z,13.80
2019-05-22T05:18:53.246Z,11.50
2019-05-22T05:21:23.471Z,9.23
2019-05-22T05:23:53.909Z,9.83
2019-05-22T05:26:24.329Z,9.57
2019-05-22T05:28:54.660Z,9.10
2019-05-22T05:31:25.114Z,9.37
2019-05-22T05:34:12.968Z,7.90
2019-05-22T05:36:43.540Z,7.27
2019-05-22T05:40:21.021Z,6.77
2019-05-22T05:42:51.223Z,5.70
2019-05-22T05:45:21.523Z,5.20
2019-05-22T05:47:51.850Z,5.00
2019-05-22T05:50:37.866Z,4.87
2019-05-22T05:52:53.327Z,4.83
2019-05-22T05:55:24.314Z,4.30
2019-05-22T05:58:27.728Z,4.10
2019-05-22T06:01:01.122Z,4.10
2019-05-22T06:03:33.790Z,5.10
2019-05-22T06:06:08.967Z,4.67
2019-05-22T06:08:39.474Z,4.53
2019-05-22T06:11:30.203Z,3.80
2019-05-22T06:14:00.623Z,5.00
2019-05-22T06:18:57.162Z,5.27
2019-05-22T06:21:26.007Z,5.60
2019-05-22T06:25:06.093Z,6.00
2019-05-22T06:27:53.941Z,5.83
2019-05-22T06:30:36.586Z,5.27
2019-05-22T06:33:29.352Z,6.20
2019-05-22T06:36:00.132Z,7.03
2019-05-22T06:39:06.264Z,5.47
2019-05-22T06:41:38.653Z,7.40
2019-05-22T06:44:24.533Z,5.50
2019-05-22T06:46:54.898Z,7.27
2019-05-22T06:49:58.546Z,6.83
2019-05-22T06:52:29.049Z,6.90
2019-05-22T06:54:59.274Z,6.17
2019-05-22T06:57:29.571Z,6.30
2019-05-22T07:00:13.521Z,6.47
2019-05-22T07:02:31.542Z,5.23
2019-05-22T07:05:01.965Z,5.67
2019-05-22T07:07:32.441Z,4.30
2019-05-22T07:10:03.102Z,5.40
2019-05-22T07:12:34.182Z,5.10
2019-05-22T07:15:40.916Z,6.10
2019-05-22T07:18:13.100Z,5.07
2019-05-22T07:20:43.282Z,5.57
2019-05-22T07:23:25.975Z,5.60
2019-05-22T07:26:00.298Z,4.37
2019-05-22T07:28:36.000Z,5.20
2019-05-22T07:31:07.127Z,4.60
2019-05-22T07:33:37.949Z,4.03
2019-05-22T07:36:12.294Z,4.50
2019-05-22T07:38:39.384Z,4.50
2019-05-22T07:41:10.031Z,4.03
2019-05-22T07:43:41.974Z,5.20
2019-05-22T07:46:11.247Z,4.70
2019-05-22T07:48:41.918Z,4.33
2019-05-22T07:51:12.428Z,4.67
2019-05-22T07:53:42.821Z,5.83
2019-05-22T07:56:13.372Z,4.87
2019-05-22T07:58:44.353Z,6.00
2019-05-22T08:01:15.749Z,5.27
2019-05-22T08:03:46.239Z,5.67
2019-05-22T08:06:16.722Z,6.10
2019-05-22T08:08:47.164Z,5.40
2019-05-22T08:11:17.572Z,6.40
2019-05-22T08:13:48.125Z,4.83
2019-05-22T08:16:18.541Z,6.03
2019-05-22T08:18:48.968Z,5.43
2019-05-22T08:21:19.291Z,4.30
2019-05-22T08:23:49.643Z,5.50
2019-05-22T08:26:20.382Z,5.43
2019-05-22T08:28:51.229Z,5.67
2019-05-22T08:31:21.974Z,5.70
2019-05-22T08:33:52.635Z,6.00
2019-05-22T08:36:22.930Z,5.50
2019-05-22T08:38:53.618Z,5.47
2019-05-22T08:41:26.412Z,5.73
2019-05-22T08:44:15.271Z,5.37
2019-05-22T08:46:27.888Z,5.60
2019-05-22T08:48:58.336Z,5.70
2019-05-22T08:51:28.633Z,5.50
2019-05-22T08:53:59.502Z,5.53
2019-05-22T08:56:30.298Z,6.07
2019-05-22T08:59:18.482Z,6.43
2019-05-22T09:01:31.930Z,6.60
2019-05-22T09:04:02.128Z,6.40
2019-05-22T09:06:32.653Z,5.97
2019-05-22T09:09:03.210Z,5.53
2019-05-22T09:11:33.782Z,5.73
2019-05-22T09:14:04.359Z,6.43
2019-05-22T09:16:34.636Z,6.70
2019-05-22T09:19:06.053Z,5.77
2019-05-22T09:21:40.016Z,4.93
2019-05-22T09:24:07.450Z,6.57
2019-05-22T09:26:37.859Z,5.53
2019-05-22T09:29:08.356Z,6.93
2019-05-22T09:31:38.988Z,6.37
2019-05-22T09:34:09.729Z,6.80
2019-05-22T09:36:40.444Z,6.27
2019-05-22T09:39:10.629Z,7.97
2019-05-22T09:41:40.262Z,7.67
2019-05-22T09:44:10.603Z,7.87
2019-05-22T09:46:40.982Z,9.07
2019-05-22T09:49:12.370Z,10.53
2019-05-22T09:51:42.834Z,11.47
2019-05-22T09:54:13.390Z,11.90
2019-05-22T09:56:43.937Z,11.87
2019-05-22T09:59:14.758Z,10.77
2019-05-22T10:01:44.260Z,12.57
2019-05-22T10:04:14.798Z,13.20
2019-05-22T10:06:45.479Z,13.80
2019-05-22T10:09:15.922Z,12.83
2019-05-22T10:11:46.507Z,12.47
2019-05-22T10:14:17.258Z,13.90
2019-05-22T10:16:47.778Z,13.53
2019-05-22T10:19:18.300Z,13.33
2019-05-22T10:21:49.513Z,13.07
2019-05-22T10:24:20.362Z,15.77
2019-05-22T10:26:50.807Z,15.70
2019-05-22T10:29:21.495Z,14.30
2019-05-22T10:31:51.982Z,13.70
2019-05-22T10:34:22.600Z,17.00
2019-05-22T10:36:53.046Z,16.53
2019-05-22T10:39:24.799Z,13.77
2019-05-22T10:41:54.087Z,14.77
2019-05-22T10:44:24.406Z,17.57
2019-05-22T10:46:54.812Z,16.23
2019-05-22T10:49:25.369Z,16.90
2019-05-22T10:51:55.860Z,15.30
2019-05-22T10:54:26.374Z,17.17
2019-05-22T10:56:56.949Z,17.83
2019-05-22T10:59:27.511Z,16.20
2019-05-22T11:01:57.941Z,16.37
2019-05-22T11:04:28.771Z,15.50
2019-05-22T11:06:59.166Z,14.37
2019-05-22T11:09:30.002Z,15.37
2019-05-22T11:12:00.614Z,14.80
2019-05-22T11:14:31.476Z,14.77
2019-05-22T11:17:02.486Z,15.63
2019-05-22T11:19:33.117Z,15.50
2019-05-22T11:22:02.928Z,13.70
2019-05-22T11:24:33.073Z,16.53
2019-05-22T11:27:03.680Z,15.90
2019-05-22T11:29:34.239Z,16.57
2019-05-22T11:32:04.921Z,17.13
2019-05-22T11:34:35.731Z,16.40
2019-05-22T11:37:06.468Z,15.97
2019-05-22T11:39:39.237Z,16.97
2019-05-22T11:42:06.968Z,16.13
2019-05-22T11:44:37.443Z,18.63
2019-05-22T11:47:08.054Z,17.03
2019-05-22T11:49:38.824Z,18.17
2019-05-22T11:52:08.913Z,20.80
2019-05-22T11:54:39.290Z,19.27
2019-05-22T11:57:09.805Z,16.17
2019-05-22T11:59:39.662Z,19.50
2019-05-22T12:02:10.266Z,20.53
2019-05-22T12:04:48.161Z,19.20
2019-05-22T12:07:11.442Z,17.53
2019-05-22T12:09:41.944Z,17.17
2019-05-22T12:12:12.109Z,19.60
2019-05-22T12:14:42.476Z,18.93
2019-05-22T12:17:12.931Z,19.43
2019-05-22T12:19:43.564Z,20.23
2019-05-22T12:22:14.317Z,16.63
2019-05-22T12:24:45.115Z,21.73
2019-05-22T12:27:15.085Z,20.77
2019-05-22T12:29:45.827Z,18.17
2019-05-22T12:32:15.923Z,17.93
2019-05-22T12:34:46.422Z,20.90
2019-05-22T12:37:16.273Z,17.67
2019-05-22T12:39:46.883Z,20.77
2019-05-22T12:42:17.422Z,21.17
2019-05-22T12:44:48.313Z,20.80
2019-05-22T12:47:18.238Z,22.33
2019-05-22T12:49:48.802Z,20.57
2019-05-22T12:52:19.466Z,20.20
2019-05-22T12:54:52.846Z,17.13
2019-05-22T12:57:21.160Z,17.60
2019-05-22T12:59:51.716Z,20.27
2019-05-22T13:02:22.258Z,16.53
2019-05-22T13:04:53.206Z,18.87
2019-05-22T13:07:23.675Z,17.13
2019-05-22T13:09:54.156Z,17.57
2019-05-22T13:12:24.926Z,15.90
2019-05-22T13:15:09.228Z,9.27
2019-05-22T13:17:26.854Z,3.97
2019-05-22T13:19:57.431Z,2.53
2019-05-22T13:22:28.168Z,2.90
2019-05-22T13:24:58.835Z,2.03
2019-05-22T13:27:29.481Z,1.73
2019-05-22T13:30:00.343Z,1.20
2019-05-22T13:32:30.969Z,2.00
2019-05-22T13:35:01.755Z,1.63
2019-05-22T13:37:32.351Z,2.10
2019-05-22T13:40:03.814Z,1.67
2019-05-22T13:42:34.458Z,1.80
2019-05-22T13:45:05.430Z,2.37
2019-05-22T13:47:35.883Z,1.90
2019-05-22T13:50:06.906Z,1.90
2019-05-22T13:52:37.521Z,2.00
2019-05-22T13:55:07.561Z,1.87
2019-05-22T13:57:38.103Z,1.90
2019-05-22T14:00:09.717Z,1.60
2019-05-22T14:02:39.690Z,1.90
2019-05-22T14:05:13.509Z,1.53
2019-05-22T14:07:40.901Z,1.73
2019-05-22T14:10:11.417Z,1.50
2019-05-22T14:12:41.841Z,2.80
2019-05-22T14:15:13.071Z,2.47
2019-05-22T14:17:43.617Z,2.20
2019-05-22T14:20:14.353Z,1.93
2019-05-22T14:22:44.919Z,2.63
2019-05-22T14:25:15.639Z,3.80
2019-05-22T14:27:46.339Z,3.00
2019-05-22T14:30:17.134Z,5.07
2019-05-22T14:32:47.553Z,6.07
2019-05-22T14:35:18.376Z,3.20
2019-05-22T14:37:49.020Z,3.70
2019-05-22T14:40:19.614Z,3.20
2019-05-22T14:42:50.047Z,3.33
2019-05-22T14:45:20.712Z,3.63
2019-05-22T14:47:51.106Z,3.33
2019-05-22T14:50:21.924Z,4.00
2019-05-22T14:52:52.875Z,3.77
2019-05-22T14:55:23.735Z,4.27
2019-05-22T16:24:58.224Z,3.90
2019-05-22T16:29:52.225Z,4.03
2019-05-22T16:32:23.090Z,5.70
2019-05-22T16:34:53.732Z,3.20
2019-05-22T16:37:24.550Z,3.70
2019-05-22T16:39:55.098Z,2.70
2019-05-22T16:42:25.946Z,3.43
2019-05-22T16:44:56.659Z,3.80
2019-05-22T16:47:27.524Z,3.23
2019-05-22T16:49:58.239Z,3.27
2019-05-22T16:52:28.828Z,3.83
2019-05-22T16:54:59.771Z,4.07
2019-05-22T16:57:30.618Z,4.00
2019-05-22T17:00:01.007Z,3.07
2019-05-22T17:02:31.916Z,3.47
2019-05-22T17:05:02.580Z,3.83
2019-05-22T17:07:33.088Z,3.50
2019-05-22T17:10:04.176Z,3.70
2019-05-22T17:12:34.840Z,2.63
2019-05-22T17:15:05.650Z,3.17
2019-05-22T17:17:36.075Z,3.07
2019-05-22T17:20:07.320Z,3.40
2019-05-22T17:22:38.054Z,3.20
2019-05-22T17:25:08.899Z,3.23
2019-05-22T17:27:39.540Z,2.97
2019-05-22T17:30:10.173Z,3.40
2019-05-22T17:32:41.010Z,3.17
2019-05-22T17:35:11.831Z,3.50
2019-05-22T17:37:42.542Z,3.57
2019-05-22T17:40:13.209Z,3.23
2019-05-22T17:42:43.874Z,3.40
2019-05-22T17:45:14.682Z,3.17
2019-05-22T17:47:45.472Z,3.60
2019-05-22T17:50:25.983Z,3.30
2019-05-22T17:52:46.841Z,3.40
2019-05-22T17:55:17.389Z,3.23
2019-05-22T17:57:47.922Z,3.03
2019-05-22T18:00:23.650Z,3.30
2019-05-22T18:02:54.083Z,3.40
2019-05-22T18:05:24.854Z,3.60
2019-05-22T18:07:56.592Z,3.27
2019-05-22T18:10:27.268Z,3.30
2019-05-22T18:12:57.963Z,3.47
2019-05-22T18:15:28.601Z,3.20
2019-05-22T18:17:59.420Z,3.30
2019-05-22T18:20:42.429Z,3.03
2019-05-22T18:23:00.850Z,3.17
2019-05-22T18:25:31.741Z,2.83
2019-05-22T18:28:02.800Z,3.90
2019-05-22T18:30:33.695Z,3.97
2019-05-22T18:33:04.459Z,3.67
2019-05-22T18:35:35.238Z,3.93
2019-05-22T18:38:05.856Z,3.60
2019-05-22T18:40:36.339Z,3.40
2019-05-22T18:43:06.895Z,3.67
2019-05-22T18:45:37.778Z,4.63
2019-05-22T18:48:09.231Z,3.80
2019-05-22T18:50:40.027Z,3.23
2019-05-22T18:53:10.685Z,3.93
2019-05-22T18:55:41.010Z,4.70
2019-05-22T18:58:11.643Z,3.20
2019-05-22T19:00:41.444Z,3.63
2019-05-22T19:03:11.953Z,3.93
2019-05-22T19:05:42.920Z,3.67
2019-05-22T19:08:12.818Z,3.67
2019-05-22T19:10:42.470Z,4.17
2019-05-22T19:13:14.644Z,3.13
2019-05-22T19:15:44.344Z,3.03
2019-05-22T19:18:14.917Z,2.97
2019-05-22T19:20:45.612Z,3.17
2019-05-22T19:23:16.195Z,3.07
2019-05-22T19:25:46.669Z,2.90
2019-05-22T19:28:17.314Z,3.20
2019-05-22T19:30:47.828Z,3.03
2019-05-22T19:33:18.363Z,3.20
2019-05-22T19:35:48.883Z,3.60
2019-05-22T19:38:22.768Z,3.63
2019-05-22T19:40:50.149Z,3.77
2019-05-22T19:43:20.763Z,3.80
2019-05-22T19:45:51.572Z,3.47
2019-05-22T19:48:22.076Z,3.70
2019-05-22T19:50:52.723Z,3.63
2019-05-22T19:53:23.566Z,3.00
2019-05-22T19:55:54.154Z,3.30
2019-05-22T19:58:24.888Z,3.07
2019-05-22T20:00:55.466Z,2.90
2019-05-22T20:03:26.289Z,2.70
2019-05-22T20:05:56.770Z,3.57
2019-05-22T20:08:27.563Z,3.37
2019-05-22T20:10:58.224Z,3.07
2019-05-22T20:13:28.890Z,3.33
2019-05-22T20:15:59.348Z,3.77
2019-05-22T20:18:29.834Z,3.47
2019-05-22T20:21:00.546Z,3.97
2019-05-22T20:23:35.916Z,3.20
2019-05-22T20:26:02.197Z,3.27
2019-05-22T20:28:32.906Z,3.20
2019-05-22T20:31:03.619Z,3.13
2019-05-22T20:33:34.240Z,2.87
2019-05-22T20:36:04.861Z,3.30
2019-05-22T20:38:35.339Z,2.50
2019-05-22T20:41:05.862Z,3.23
2019-05-22T20:43:36.211Z,3.30
2019-05-22T20:46:06.563Z,3.40
2019-05-22T20:48:37.555Z,3.10
2019-05-22T20:51:11.796Z,2.70
2019-05-22T20:53:53.586Z,3.10
2019-05-22T20:56:13.180Z,2.23
2019-05-22T20:58:44.138Z,3.30
2019-05-22T21:01:14.988Z,2.57
2019-05-22T21:03:45.417Z,2.80
2019-05-22T21:06:16.506Z,2.30
2019-05-22T21:08:47.256Z,2.83
2019-05-22T21:11:18.407Z,2.30
2019-05-22T21:13:48.950Z,2.30
2019-05-22T21:16:19.668Z,2.63
2019-05-22T21:18:50.943Z,2.30
2019-05-22T21:21:21.682Z,2.60
2019-05-22T21:23:52.144Z,2.40
2019-05-22T21:26:22.536Z,2.40
2019-05-22T21:28:52.914Z,2.80
2019-05-22T21:31:23.212Z,2.53
2019-05-22T21:33:54.032Z,2.00
2019-05-22T21:36:24.361Z,2.63
2019-05-22T21:38:54.653Z,2.73
2019-05-22T21:41:25.114Z,3.40
2019-05-22T21:43:55.778Z,3.60
2019-05-22T21:46:26.633Z,3.27
2019-05-22T21:48:58.350Z,3.20
2019-05-22T21:51:28.557Z,3.47
2019-05-22T21:53:59.147Z,3.87
2019-05-22T21:56:29.635Z,4.57
2019-05-22T21:58:59.878Z,5.47
2019-05-22T22:01:33.550Z,3.87
2019-05-22T22:04:10.763Z,4.17
2019-05-22T22:06:41.222Z,4.40
2019-05-22T22:09:11.844Z,3.90
2019-05-22T22:15:15.981Z,3.60
2019-05-22T22:17:46.844Z,3.93
2019-05-22T22:20:17.406Z,4.53
2019-05-22T22:22:47.805Z,4.30
2019-05-22T22:25:18.189Z,4.60
2019-05-22T22:27:48.795Z,4.07
2019-05-22T22:30:22.624Z,3.30
2019-05-22T22:32:52.979Z,3.20
2019-05-22T22:35:23.306Z,4.27
2019-05-22T22:37:53.482Z,4.23
2019-05-22T22:40:23.931Z,4.13
2019-05-22T22:42:54.334Z,4.03
2019-05-22T22:45:28.770Z,3.90
2019-05-22T22:47:59.421Z,3.67
2019-05-22T22:50:29.681Z,3.87
2019-05-22T22:52:59.995Z,3.97
2019-05-22T22:55:30.619Z,4.30
2019-05-22T22:58:15.989Z,5.10
2019-05-22T23:00:35.426Z,4.20
2019-05-22T23:03:06.721Z,4.30
2019-05-22T23:05:37.142Z,4.67
2019-05-22T23:08:07.651Z,4.40
2019-05-22T23:10:37.993Z,4.90
2019-05-22T23:13:08.633Z,5.10
2019-05-22T23:15:39.211Z,5.03
2019-05-22T23:18:09.550Z,4.63
2019-05-22T23:20:38.410Z,4.83
2019-05-22T23:23:07.717Z,4.70
2019-05-22T23:25:38.590Z,4.40
2019-05-22T23:28:09.473Z,5.00
2019-05-22T23:30:39.926Z,5.30
2019-05-22T23:33:10.211Z,4.60
2019-05-22T23:35:40.444Z,4.73
2019-05-22T23:38:10.739Z,4.93
2019-05-22T23:40:41.058Z,4.67
2019-05-22T23:43:11.482Z,4.43
2019-05-22T23:45:41.858Z,4.90
2019-05-22T23:48:12.934Z,4.90
2019-05-22T23:50:43.298Z,4.13
2019-05-22T23:53:13.560Z,4.77
2019-05-22T23:55:44.328Z,4.77
2019-05-22T23:58:15.305Z,4.03
